createdAt,value
2023-02-05T02:43:12.914Z,86.77
2023-02-05T04:38:32.861Z,86.22
2023-02-05T04:41:35.725Z,86.33
2023-02-05T04:44:38.468Z,86.51
2023-02-05T04:47:41.261Z,86.31
2023-02-05T04:50:44.248Z,87.32
2023-02-05T04:53:48.512Z,88.00
2023-02-05T04:56:51.342Z,86.90
2023-02-05T04:59:54.378Z,88.41
2023-02-05T05:02:57.885Z,87.51
2023-02-05T05:06:05.688Z,87.63
2023-02-05T05:09:09.759Z,88.68
2023-02-05T05:12:12.430Z,86.85
2023-02-05T05:15:15.200Z,88.66
2023-02-05T05:18:17.902Z,88.18
2023-02-05T05:21:20.507Z,88.34
2023-02-05T05:24:24.471Z,87.82
2023-02-05T05:27:27.276Z,89.14
2023-02-05T05:30:29.976Z,89.34
2023-02-05T05:33:32.645Z,89.41
2023-02-05T05:36:35.816Z,89.19
2023-02-05T05:39:59.472Z,89.04
2023-02-05T05:43:19.967Z,89.55
2023-02-05T05:46:25.205Z,90.22
2023-02-05T05:49:27.835Z,90.23
2023-02-05T05:52:32.466Z,89.93
2023-02-05T05:55:37.114Z,89.42
2023-02-05T05:58:40.491Z,90.76
2023-02-05T06:01:43.170Z,90.10
2023-02-05T06:04:45.892Z,89.50
2023-02-05T06:07:48.558Z,89.30
2023-02-05T06:10:52.546Z,88.53
2023-02-05T06:13:55.159Z,87.76
2023-02-05T06:16:57.848Z,87.56
2023-02-05T06:20:00.554Z,88.48
2023-02-05T06:23:03.229Z,89.33
2023-02-05T06:26:07.835Z,90.10
2023-02-05T06:29:10.580Z,89.75
2023-02-05T06:32:13.262Z,88.92
2023-02-05T06:35:16.281Z,89.96
2023-02-05T06:38:18.987Z,89.73
2023-02-05T06:41:23.005Z,89.17
2023-02-05T06:44:25.838Z,88.48
2023-02-05T06:47:28.520Z,88.63
2023-02-05T06:50:31.656Z,88.58
2023-02-05T06:53:34.339Z,88.81
2023-02-05T06:56:38.772Z,89.26
2023-02-05T06:59:41.407Z,88.73
2023-02-05T07:02:44.348Z,89.15
2023-02-05T07:05:47.082Z,88.97
2023-02-05T07:08:49.888Z,88.77
2023-02-05T07:11:54.010Z,88.96
2023-02-05T07:14:56.748Z,89.73
2023-02-05T07:17:59.770Z,90.35
2023-02-05T07:21:06.172Z,89.89
2023-02-05T07:24:09.429Z,90.31
2023-02-05T07:27:13.461Z,90.35
2023-02-05T07:30:16.836Z,90.45
2023-02-05T07:33:19.502Z,89.71
2023-02-05T07:36:22.160Z,89.76
2023-02-05T07:39:24.935Z,90.27
2023-02-05T07:42:31.367Z,91.64
2023-02-05T07:45:34.528Z,91.31
2023-02-05T07:48:37.762Z,91.56
2023-02-05T07:51:40.461Z,91.34
2023-02-05T07:54:43.192Z,90.21
2023-02-05T07:57:47.618Z,89.58
2023-02-05T08:00:50.371Z,90.40
2023-02-05T08:03:53.515Z,90.91
2023-02-05T08:06:56.179Z,90.92
2023-02-05T08:09:59.214Z,90.87
2023-02-05T08:13:03.535Z,90.54
2023-02-05T08:16:06.935Z,91.00
2023-02-05T08:19:14.244Z,90.25
2023-02-05T08:22:16.925Z,89.91
2023-02-05T08:25:19.785Z,89.27
2023-02-05T08:28:24.575Z,89.93
2023-02-05T08:31:27.568Z,89.52
2023-02-05T08:34:30.407Z,89.01
2023-02-05T08:37:33.683Z,88.88
2023-02-05T08:40:36.808Z,89.27
2023-02-05T08:43:42.746Z,88.81
2023-02-05T08:46:50.267Z,87.77
2023-02-05T08:49:53.481Z,87.53
2023-02-05T08:52:56.334Z,87.95
2023-02-05T08:56:00.204Z,88.16
2023-02-05T08:59:04.316Z,86.85
2023-02-05T09:02:07.005Z,87.25
2023-02-05T09:05:10.396Z,87.09
2023-02-05T09:08:13.133Z,85.98
2023-02-05T09:11:22.427Z,86.25
2023-02-05T09:14:26.482Z,87.28
2023-02-05T09:17:29.194Z,87.83
2023-02-05T09:20:31.902Z,88.30
2023-02-05T09:23:34.829Z,89.12
2023-02-05T09:26:37.613Z,89.85
2023-02-05T09:29:41.902Z,89.94
2023-02-05T09:32:45.916Z,91.73
2023-02-05T09:35:48.587Z,92.29
2023-02-05T09:39:01.967Z,92.84
2023-02-05T09:42:17.237Z,93.79
2023-02-05T09:45:38.336Z,93.94
2023-02-05T09:48:50.402Z,93.87
2023-02-05T09:51:59.306Z,95.17
2023-02-05T09:55:05.548Z,94.45
2023-02-05T09:58:14.407Z,95.13
2023-02-05T10:01:23.515Z,95.73
2023-02-05T10:04:27.382Z,96.22
2023-02-05T10:07:42.272Z,96.26
2023-02-05T10:10:48.682Z,96.20
2023-02-05T10:14:02.236Z,96.82
2023-02-05T10:17:22.028Z,97.15
2023-02-05T10:20:43.142Z,96.43
2023-02-05T10:24:04.132Z,95.93
2023-02-05T10:27:16.833Z,95.86
2023-02-05T10:30:26.958Z,95.17
2023-02-05T10:33:45.467Z,95.83
2023-02-05T10:36:53.187Z,96.26
2023-02-05T10:39:58.542Z,95.76
2023-02-05T10:43:06.275Z,96.10
2023-02-05T10:49:56.984Z,96.76
2023-02-05T10:53:03.358Z,98.82
2023-02-05T11:05:23.440Z,99.57
2023-02-05T11:08:35.788Z,98.79
2023-02-05T11:11:39.034Z,97.57
2023-02-05T11:14:46.725Z,97.46
2023-02-05T11:17:55.285Z,98.00
2023-02-05T11:21:01.525Z,97.28
2023-02-05T11:24:04.532Z,97.58
2023-02-05T11:27:26.902Z,97.63
2023-02-05T11:30:49.988Z,98.07
2023-02-05T11:34:10.983Z,97.84
2023-02-05T11:37:18.451Z,97.64
2023-02-05T11:40:23.920Z,98.27
2023-02-05T11:43:32.528Z,98.86
2023-02-05T11:46:44.246Z,98.16
2023-02-05T11:49:52.003Z,97.46
2023-02-05T11:53:06.749Z,97.39
2023-02-05T11:56:12.913Z,97.82
2023-02-05T11:59:22.777Z,98.28
2023-02-05T12:02:32.049Z,97.90
2023-02-05T12:05:41.081Z,97.04
2023-02-05T12:08:49.361Z,97.70
2023-02-05T12:12:06.455Z,99.15
2023-02-05T12:15:35.558Z,99.41
2023-02-05T12:18:51.384Z,99.48
2023-02-05T12:22:03.346Z,99.32
2023-02-05T12:25:16.777Z,99.70
2023-02-05T12:28:30.541Z,99.72
2023-02-05T12:31:47.223Z,99.53
2023-02-05T12:35:06.754Z,100.00
2023-02-05T12:38:31.532Z,99.35
2023-02-05T12:41:45.487Z,99.11
2023-02-05T12:49:12.400Z,99.88
2023-02-05T12:52:47.823Z,97.55
2023-02-05T13:00:07.821Z,98.94
2023-02-05T13:03:19.990Z,99.41
2023-02-05T13:06:29.310Z,98.62
2023-02-05T13:09:45.178Z,99.07
2023-02-05T13:12:52.328Z,99.62
2023-02-05T13:16:03.528Z,99.67
2023-02-05T13:19:19.074Z,99.24
2023-02-05T13:22:43.843Z,99.64
2023-02-05T13:26:07.549Z,99.61
2023-02-05T13:29:13.580Z,99.75
2023-02-05T13:32:22.639Z,98.46
2023-02-05T13:35:35.121Z,99.12
2023-02-05T13:38:59.759Z,99.30
2023-02-05T13:42:45.579Z,99.36
2023-02-05T13:46:42.770Z,97.70
2023-02-05T13:50:40.764Z,98.03
2023-02-05T13:53:52.687Z,97.30
2023-02-05T13:57:11.420Z,97.75
2023-02-05T14:00:16.687Z,97.47
2023-02-05T14:03:31.290Z,97.68
2023-02-05T14:06:38.422Z,97.73
2023-02-05T14:09:52.598Z,97.20
2023-02-05T14:13:10.334Z,95.95
2023-02-05T14:16:36.292Z,95.27
2023-02-05T14:19:57.194Z,96.26
2023-02-05T14:23:02.455Z,97.40
2023-02-05T14:26:11.905Z,97.25
2023-02-05T14:29:39.698Z,97.69
2023-02-05T14:32:59.838Z,97.72
2023-02-05T14:36:36.027Z,98.68
2023-02-05T14:39:39.641Z,99.06
2023-02-05T14:42:44.560Z,98.56
2023-02-05T14:45:51.237Z,97.46
2023-02-05T14:49:11.513Z,97.05
2023-02-05T14:56:32.536Z,97.41
2023-02-05T14:59:44.703Z,97.00
2023-02-05T15:03:02.050Z,96.82
2023-02-05T15:06:09.205Z,96.97
2023-02-05T15:09:17.725Z,96.75
2023-02-05T15:12:41.732Z,97.82
2023-02-05T15:16:09.771Z,98.34
2023-02-05T15:19:14.455Z,97.86
2023-02-05T15:22:37.628Z,98.35
2023-02-05T15:26:16.231Z,97.75
2023-02-05T15:29:24.693Z,98.01
2023-02-05T15:32:33.898Z,97.87
2023-02-05T15:35:37.644Z,98.01
2023-02-05T15:38:47.451Z,98.09
2023-02-05T15:41:50.368Z,98.71
2023-02-05T15:44:53.182Z,98.42
2023-02-05T15:48:02.769Z,98.60
2023-02-05T15:51:14.527Z,98.65
2023-02-05T15:54:21.113Z,98.23
2023-02-05T15:57:26.945Z,98.11
2023-02-05T16:00:33.025Z,97.96
2023-02-05T16:03:38.904Z,96.94
2023-02-05T16:06:41.627Z,97.57
2023-02-05T16:09:47.487Z,97.33
2023-02-05T16:13:03.985Z,97.96
2023-02-05T16:16:11.544Z,98.44
2023-02-05T16:19:21.905Z,98.08
2023-02-05T16:22:34.733Z,97.98
2023-02-05T16:25:42.790Z,98.95
2023-02-05T16:28:51.314Z,96.97
2023-02-05T16:31:59.956Z,98.05
2023-02-05T16:35:06.806Z,97.61
2023-02-05T16:38:16.046Z,98.62
2023-02-05T16:41:23.136Z,98.43
2023-02-05T16:44:33.138Z,98.84
2023-02-05T16:47:47.058Z,98.08
2023-02-05T16:51:02.544Z,98.26
2023-02-05T16:54:57.887Z,98.07
2023-02-05T17:02:00.388Z,98.73
2023-02-05T17:05:33.345Z,99.79
2023-02-05T17:09:21.048Z,99.52
2023-02-05T17:12:49.701Z,100.00
2023-02-05T17:16:16.019Z,99.86
2023-02-05T17:19:34.580Z,98.54
2023-02-05T17:22:54.866Z,98.83
2023-02-05T17:26:18.740Z,98.76
2023-02-05T17:29:47.450Z,99.97
2023-02-05T17:33:51.937Z,98.90
2023-02-05T17:37:35.229Z,99.54
2023-02-05T17:48:30.586Z,99.35
2023-02-05T17:55:25.368Z,99.43
2023-02-05T18:02:21.682Z,100.00
2023-02-05T18:05:34.344Z,100.00
2023-02-05T18:08:44.228Z,100.00
2023-02-05T18:12:03.349Z,99.97
2023-02-05T18:15:12.164Z,99.62
2023-02-05T18:18:16.193Z,99.79
2023-02-05T18:21:21.412Z,99.66
2023-02-05T18:24:24.134Z,99.34
2023-02-05T18:27:26.891Z,99.87
2023-02-05T18:30:29.789Z,99.14
2023-02-05T18:33:34.027Z,99.90
2023-02-05T18:36:37.107Z,98.92
2023-02-05T18:39:39.815Z,98.77
2023-02-05T18:42:42.581Z,98.24
2023-02-05T18:45:45.887Z,97.75
2023-02-05T18:48:50.224Z,97.53
2023-02-05T18:51:53.010Z,97.79
2023-02-05T18:54:55.703Z,97.37
2023-02-05T18:57:58.414Z,97.19
2023-02-05T19:01:09.072Z,97.89
2023-02-05T19:04:15.116Z,96.86
2023-02-05T19:07:20.335Z,97.25
2023-02-05T19:10:23.676Z,96.60
2023-02-05T19:13:26.483Z,96.62
2023-02-05T19:16:30.982Z,95.96
2023-02-05T19:19:35.479Z,96.63
2023-02-05T19:22:38.678Z,96.63
2023-02-05T19:25:41.355Z,96.49
2023-02-05T19:28:45.516Z,95.60
2023-02-05T19:31:49.022Z,96.77
2023-02-05T19:34:54.869Z,95.58
2023-02-05T19:37:57.955Z,96.62
2023-02-05T19:41:06.383Z,97.53
2023-02-05T19:44:10.320Z,96.39
2023-02-05T19:47:13.261Z,96.35
2023-02-05T19:50:17.884Z,96.45
2023-02-05T19:53:21.317Z,95.91
2023-02-05T19:56:25.278Z,95.99
2023-02-05T19:59:28.321Z,95.79
2023-02-05T20:02:31.808Z,95.09
2023-02-05T20:05:38.007Z,94.88
2023-02-05T20:08:41.121Z,95.56
2023-02-05T20:11:45.550Z,95.60
2023-02-05T20:14:48.215Z,96.29
2023-02-05T20:17:51.082Z,95.40
2023-02-05T20:20:55.152Z,96.25
2023-02-05T20:23:58.543Z,96.69
2023-02-05T20:27:01.212Z,95.57
2023-02-05T20:30:21.819Z,95.50
2023-02-05T20:33:24.637Z,95.11
2023-02-05T20:36:28.683Z,94.62
2023-02-05T20:39:38.519Z,95.18
2023-02-05T20:42:41.254Z,95.19
2023-02-05T20:45:43.946Z,94.92
2023-02-05T20:48:47.234Z,94.07
2023-02-05T20:51:52.874Z,95.23
2023-02-05T20:54:57.124Z,94.65
2023-02-05T20:57:59.799Z,94.56
2023-02-05T21:01:07.505Z,94.43
2023-02-05T21:04:11.452Z,95.43
2023-02-05T21:07:15.493Z,94.45
2023-02-05T21:10:19.381Z,95.04
2023-02-05T21:13:22.092Z,95.36
2023-02-05T21:16:27.115Z,95.85
2023-02-05T21:19:29.893Z,96.12
2023-02-05T21:22:34.103Z,96.58
2023-02-05T21:25:36.851Z,95.93
2023-02-05T21:28:39.973Z,96.15
2023-02-05T21:31:46.391Z,96.41
2023-02-05T21:34:49.110Z,96.16
2023-02-05T21:37:53.265Z,95.78
2023-02-05T21:40:55.997Z,96.28
2023-02-05T21:44:00.670Z,96.72
2023-02-05T21:47:03.663Z,96.20
2023-02-05T21:50:07.496Z,96.45
2023-02-05T21:53:12.546Z,95.62
2023-02-05T21:56:19.616Z,95.96
2023-02-05T21:59:22.456Z,95.80
2023-02-05T22:02:25.165Z,96.05
2023-02-05T22:05:27.818Z,95.92
2023-02-05T22:08:32.056Z,96.47
2023-02-05T22:11:35.864Z,96.52
2023-02-05T22:14:38.544Z,96.06
2023-02-05T22:17:41.425Z,96.53
2023-02-05T22:20:44.580Z,96.15
2023-02-05T22:23:53.741Z,95.82
2023-02-05T22:26:57.044Z,96.88
2023-02-05T22:29:59.698Z,96.25
2023-02-05T22:33:02.573Z,96.42
2023-02-05T22:36:05.945Z,96.79
2023-02-05T22:39:09.928Z,97.21
2023-02-05T22:42:13.419Z,96.57
2023-02-05T22:45:19.658Z,96.51
2023-02-05T22:48:40.668Z,96.62
2023-02-05T22:51:51.026Z,96.95
2023-02-05T22:55:03.763Z,96.93
2023-02-05T22:58:12.542Z,96.84
2023-02-05T23:01:20.200Z,96.60
2023-02-05T23:04:31.251Z,96.40
2023-02-05T23:07:39.877Z,96.83
2023-02-05T23:10:57.560Z,97.06
2023-02-05T23:14:13.441Z,98.03
2023-02-05T23:17:21.714Z,97.46
2023-02-05T23:20:38.057Z,97.72
2023-02-05T23:24:10.052Z,97.45
2023-02-05T23:27:43.610Z,96.68
2023-02-05T23:31:09.676Z,96.50
2023-02-05T23:37:52.530Z,95.89
2023-02-05T23:46:06.521Z,97.44
2023-02-05T23:49:48.457Z,97.51
2023-02-05T23:52:59.229Z,96.94
2023-02-05T23:56:14.529Z,97.14
2023-02-05T23:59:24.444Z,97.07
